Time;durP1;ratioP1;P1;durP2;ratioP2;P2;SDS_P1;SDS_P2;PMS_P1;PMS_P2;Temp;Humidity;BMP_temperature;BMP_pressure;BME280_temperature;BME280_humidity;BME280_pressure;Samples;Min_cycle;Max_cycle;Signal;HPM_P1;HPM_P2
2023/07/09 12:41:44;;;;;;;13.32;6.85;;;;;;;;;;6097154;23;20045;-86
2023/07/09 12:44:19;;;;;;;15.95;6.97;;;;;;;;;;6097436;23;20082;-85
2023/07/09 12:46:45;;;;;;;14.80;7.43;;;;;;;;;;6070152;23;20002;-85
2023/07/09 12:49:27;;;;;;;15.43;7.60;;;;;;;;;;6072205;23;20009;-85
2023/07/09 12:52:00;;;;;;;18.40;8.13;;;;;;;;;;6071736;23;20005;-85
2023/07/09 12:54:27;;;;;;;13.38;7.65;;;;;;;;;;6097315;23;20049;-84
2023/07/09 12:56:54;;;;;;;23.38;9.57;;;;;;;;;;6071109;23;20764;-84
2023/07/09 12:59:23;;;;;;;17.63;9.85;;;;;;;;;;6073081;23;20046;-85
2023/07/09 13:02:09;;;;;;;13.13;8.52;;;;;;;;;;6076062;23;20007;-84
2023/07/09 13:04:38;;;;;;;15.02;9.10;;;;;;;;;;6003973;23;20002;-83
2023/07/09 13:07:04;;;;;;;11.02;6.93;;;;;;;;;;6097825;23;20006;-83
2023/07/09 13:09:30;;;;;;;11.93;6.65;;;;;;;;;;6097680;23;19998;-83
2023/07/09 13:11:56;;;;;;;13.48;6.47;;;;;;;;;;6074373;23;20007;-83
2023/07/09 13:14:21;;;;;;;11.20;6.25;;;;;;;;;;6073716;23;20478;-83
2023/07/09 13:16:47;;;;;;;11.30;5.60;;;;;;;;;;6097787;23;20002;-83
2023/07/09 13:19:13;;;;;;;11.80;5.25;;;;;;;;;;6071245;23;19999;-84
2023/07/09 13:21:40;;;;;;;11.15;5.70;;;;;;;;;;6071863;23;20021;-83
2023/07/09 13:24:17;;;;;;;13.98;6.18;;;;;;;;;;6094013;23;20007;-83
2023/07/09 13:26:42;;;;;;;14.43;6.22;;;;;;;;;;6070406;23;20030;-84
2023/07/09 13:29:12;;;;;;;14.85;6.40;;;;;;;;;;6095328;23;19999;-84
2023/07/09 13:31:38;;;;;;;10.70;5.80;;;;;;;;;;6094719;23;20259;-84
2023/07/09 13:34:04;;;;;;;11.70;6.18;;;;;;;;;;6068156;23;19998;-84
2023/07/09 13:36:29;;;;;;;12.02;6.28;;;;;;;;;;6094745;23;19990;-82
2023/07/09 13:38:55;;;;;;;21.15;6.55;;;;;;;;;;6068830;23;20086;-83
2023/07/09 13:41:22;;;;;;;13.50;6.07;;;;;;;;;;6093965;23;20093;-83
2023/07/09 13:43:47;;;;;;;11.45;6.22;;;;;;;;;;6092605;23;20065;-83
2023/07/09 13:46:13;;;;;;;13.68;7.10;;;;;;;;;;6068432;23;20030;-83
2023/07/09 13:48:40;;;;;;;10.23;5.93;;;;;;;;;;6068452;23;20002;-83
2023/07/09 13:51:17;;;;;;;13.63;7.05;;;;;;;;;;6069044;23;20469;-83
2023/07/09 13:53:42;;;;;;;16.85;6.15;;;;;;;;;;6069542;23;19994;-83
2023/07/09 13:56:07;;;;;;;13.68;7.32;;;;;;;;;;6068800;23;20383;-83
2023/07/09 13:58:32;;;;;;;18.27;8.48;;;;;;;;;;6092567;23;20007;-83
2023/07/09 14:01:04;;;;;;;14.27;7.30;;;;;;;;;;6094979;23;20009;-82
2023/07/09 14:03:30;;;;;;;16.65;8.30;;;;;;;;;;6069061;23;20322;-83
2023/07/09 14:05:55;;;;;;;16.35;8.68;;;;;;;;;;6094566;23;20296;-83
2023/07/09 14:08:21;;;;;;;27.77;10.45;;;;;;;;;;6067984;23;20039;-83
2023/07/09 14:10:47;;;;;;;14.20;7.28;;;;;;;;;;6095186;23;20001;-83
2023/07/09 14:13:13;;;;;;;16.20;9.18;;;;;;;;;;6094678;23;20599;-82
2023/07/09 14:15:39;;;;;;;15.85;8.88;;;;;;;;;;6068030;23;19999;-83
2023/07/09 14:18:05;;;;;;;18.38;8.73;;;;;;;;;;6091877;23;20030;-82
2023/07/09 14:20:32;;;;;;;15.13;7.97;;;;;;;;;;6094613;23;19999;-82
2023/07/09 14:22:58;;;;;;;14.80;7.25;;;;;;;;;;6068774;23;20441;-82
2023/07/09 14:25:24;;;;;;;12.60;7.78;;;;;;;;;;6094514;23;20002;-82
2023/07/09 14:27:50;;;;;;;11.30;5.47;;;;;;;;;;6093500;23;20061;-83
2023/07/09 14:30:17;;;;;;;18.08;7.95;;;;;;;;;;6094931;23;20406;-82
2023/07/09 14:32:44;;;;;;;15.57;8.48;;;;;;;;;;6070145;23;20379;-84
2023/07/09 14:35:20;;;;;;;12.88;6.53;;;;;;;;;;6071404;23;20026;-84
2023/07/09 14:37:46;;;;;;;18.02;8.18;;;;;;;;;;6072121;23;20410;-84
2023/07/09 14:40:12;;;;;;;11.85;6.35;;;;;;;;;;6074298;23;20006;-84
2023/07/09 14:42:38;;;;;;;21.80;10.52;;;;;;;;;;6075862;23;20402;-84
2023/07/09 14:45:05;;;;;;;22.60;8.85;;;;;;;;;;6076554;23;20069;-84
2023/07/09 14:47:31;;;;;;;15.65;8.20;;;;;;;;;;6075518;23;20003;-85
2023/07/09 14:49:56;;;;;;;14.50;8.10;;;;;;;;;;6100324;23;20068;-84
2023/07/09 14:52:21;;;;;;;19.02;8.27;;;;;;;;;;6096211;23;20423;-85
2023/07/09 14:54:47;;;;;;;14.23;6.97;;;;;;;;;;6096050;23;19997;-85
2023/07/09 14:57:36;;;;;;;13.38;5.60;;;;;;;;;;6096467;23;19999;-85
2023/07/09 15:00:03;;;;;;;10.70;5.65;;;;;;;;;;6076725;23;20013;-85
2023/07/09 15:02:28;;;;;;;10.40;4.97;;;;;;;;;;6095807;23;20363;-85
2023/07/09 15:04:54;;;;;;;10.13;5.07;;;;;;;;;;6097263;23;20014;-85
2023/07/09 15:07:19;;;;;;;7.07;3.83;;;;;;;;;;6095260;23;20611;-85
2023/07/09 15:09:45;;;;;;;8.30;4.60;;;;;;;;;;6097298;23;20001;-86
2023/07/09 15:12:21;;;;;;;8.20;4.45;;;;;;;;;;6072013;23;20078;-85
2023/07/09 15:14:48;;;;;;;9.70;4.85;;;;;;;;;;6094879;23;20002;-84
2023/07/09 15:17:13;;;;;;;10.15;6.10;;;;;;;;;;6096255;23;19998;-85
2023/07/09 15:19:38;;;;;;;7.85;4.78;;;;;;;;;;6094718;23;20002;-85
2023/07/09 15:22:04;;;;;;;7.95;4.20;;;;;;;;;;6071692;23;20002;-85
2023/07/09 15:24:33;;;;;;;10.40;5.28;;;;;;;;;;6097260;23;20090;-85
2023/07/09 15:27:00;;;;;;;8.27;4.78;;;;;;;;;;6097345;23;19999;-85
2023/07/09 15:29:25;;;;;;;8.93;4.82;;;;;;;;;;6096038;23;20010;-85
2023/07/09 15:31:51;;;;;;;7.80;4.40;;;;;;;;;;6071590;23;20002;-85
2023/07/09 15:34:18;;;;;;;10.18;4.63;;;;;;;;;;6097139;23;20023;-86
2023/07/09 15:36:49;;;;;;;8.05;5.25;;;;;;;;;;6096474;23;19994;-86
2023/07/09 15:39:15;;;;;;;5.70;3.80;;;;;;;;;;6070818;23;20643;-86
2023/07/09 15:41:40;;;;;;;11.40;4.05;;;;;;;;;;6097253;23;20010;-85
2023/07/09 15:44:16;;;;;;;6.90;3.72;;;;;;;;;;6072066;23;20007;-85
2023/07/09 15:46:44;;;;;;;8.93;3.85;;;;;;;;;;6095435;23;20445;-85
2023/07/09 15:49:11;;;;;;;5.53;3.53;;;;;;;;;;6096480;23;20049;-85
2023/07/09 15:51:36;;;;;;;10.32;4.80;;;;;;;;;;6096457;23;20022;-86
2023/07/09 15:54:04;;;;;;;9.18;4.70;;;;;;;;;;6070885;23;20558;-85
2023/07/09 15:56:33;;;;;;;6.78;3.65;;;;;;;;;;6094214;23;20025;-85
2023/07/09 15:58:59;;;;;;;7.93;4.07;;;;;;;;;;6094084;23;20331;-85
2023/07/09 16:01:24;;;;;;;8.90;3.85;;;;;;;;;;6069019;23;20027;-85
2023/07/09 16:03:58;;;;;;;5.65;3.80;;;;;;;;;;6070504;23;20010;-85
2023/07/09 16:06:23;;;;;;;7.70;4.20;;;;;;;;;;6071155;23;20049;-85
2023/07/09 16:08:49;;;;;;;6.65;4.10;;;;;;;;;;6095245;23;19998;-84
2023/07/09 16:11:16;;;;;;;6.15;3.63;;;;;;;;;;6072083;23;20010;-85
2023/07/09 16:13:41;;;;;;;8.30;4.00;;;;;;;;;;6070020;23;20009;-85
2023/07/09 16:16:11;;;;;;;8.30;3.97;;;;;;;;;;6096048;23;19999;-85
2023/07/09 16:18:37;;;;;;;8.57;4.50;;;;;;;;;;6073007;23;20311;-85
2023/07/09 16:21:02;;;;;;;5.88;3.05;;;;;;;;;;6095786;23;20014;-85
2023/07/09 16:23:28;;;;;;;7.40;3.92;;;;;;;;;;6071880;23;20073;-85
2023/07/09 16:25:53;;;;;;;12.43;5.10;;;;;;;;;;6070396;23;20017;-86
2023/07/09 16:28:19;;;;;;;6.28;3.95;;;;;;;;;;6070988;23;20029;-84
2023/07/09 16:30:48;;;;;;;8.27;3.60;;;;;;;;;;6096190;23;20293;-84
2023/07/09 16:33:13;;;;;;;13.45;5.85;;;;;;;;;;6070149;23;20326;-85
2023/07/09 16:35:39;;;;;;;5.90;4.22;;;;;;;;;;6069560;23;20022;-85
2023/07/09 16:38:04;;;;;;;13.07;6.38;;;;;;;;;;6094990;23;19999;-85
2023/07/09 16:40:33;;;;;;;7.70;4.60;;;;;;;;;;6072710;23;20085;-84
2023/07/09 16:43:02;;;;;;;11.63;6.13;;;;;;;;;;6096293;23;20331;-85
2023/07/09 16:45:28;;;;;;;10.27;5.25;;;;;;;;;;6095885;23;20002;-85
2023/07/09 16:47:53;;;;;;;9.13;5.70;;;;;;;;;;6093223;23;20062;-84
2023/07/09 16:50:20;;;;;;;10.57;5.63;;;;;;;;;;6094066;23;20017;-85
2023/07/09 16:52:46;;;;;;;8.70;5.28;;;;;;;;;;6094274;23;20105;-84
2023/07/09 16:55:16;;;;;;;12.18;7.32;;;;;;;;;;6118145;23;19998;-85
2023/07/09 16:57:42;;;;;;;11.93;6.15;;;;;;;;;;6095939;23;20009;-84
2023/07/09 17:00:16;;;;;;;13.60;5.82;;;;;;;;;;6096084;23;20002;-85
2023/07/09 17:02:42;;;;;;;13.73;6.32;;;;;;;;;;6094272;23;20058;-84
2023/07/09 17:05:07;;;;;;;13.05;6.72;;;;;;;;;;6093875;23;20010;-84
2023/07/09 17:07:33;;;;;;;12.93;6.28;;;;;;;;;;6118438;23;20010;-84
2023/07/09 17:10:00;;;;;;;9.88;5.43;;;;;;;;;;6118533;23;20097;-85
2023/07/09 17:12:28;;;;;;;13.75;8.55;;;;;;;;;;6096384;23;20005;-85
2023/07/09 17:14:54;;;;;;;12.80;7.03;;;;;;;;;;6118421;23;20464;-85
2023/07/09 17:17:20;;;;;;;8.00;5.28;;;;;;;;;;6094200;23;20347;-85
2023/07/09 17:19:49;;;;;;;10.25;5.43;;;;;;;;;;6118574;23;20022;-85
2023/07/09 17:22:17;;;;;;;12.93;5.00;;;;;;;;;;6118651;23;20002;-85
2023/07/09 17:24:42;;;;;;;9.93;4.13;;;;;;;;;;6095404;23;20097;-84
2023/07/09 17:27:10;;;;;;;5.85;4.07;;;;;;;;;;6096211;23;20069;-85
2023/07/09 17:29:35;;;;;;;7.30;3.92;;;;;;;;;;6096343;23;20422;-84
2023/07/09 17:32:00;;;;;;;7.57;3.75;;;;;;;;;;6096443;23;20021;-84
2023/07/09 17:34:25;;;;;;;9.05;4.00;;;;;;;;;;6097465;23;19998;-84
2023/07/09 17:36:53;;;;;;;8.93;4.32;;;;;;;;;;6116000;23;20382;-85
2023/07/09 17:39:19;;;;;;;9.50;5.00;;;;;;;;;;6097193;23;20006;-84
2023/07/09 17:41:47;;;;;;;11.20;4.63;;;;;;;;;;6096620;23;20033;-84
2023/07/09 17:44:22;;;;;;;7.53;3.75;;;;;;;;;;6096506;23;20073;-85
2023/07/09 17:46:48;;;;;;;7.40;4.03;;;;;;;;;;6096870;23;19998;-84
2023/07/09 17:49:25;;;;;;;8.13;4.35;;;;;;;;;;6100202;23;20328;-85
2023/07/09 17:51:51;;;;;;;7.93;4.38;;;;;;;;;;6099462;23;20303;-85
2023/07/09 17:54:17;;;;;;;7.63;4.03;;;;;;;;;;6068360;23;20011;-84
2023/07/09 17:56:43;;;;;;;11.43;5.28;;;;;;;;;;6065553;23;20304;-85
2023/07/09 17:59:11;;;;;;;8.00;4.75;;;;;;;;;;6093843;23;20013;-80
2023/07/09 18:01:37;;;;;;;8.27;4.85;;;;;;;;;;6091883;23;20271;-80
2023/07/09 18:04:02;;;;;;;11.75;4.80;;;;;;;;;;6065161;23;20156;-80
2023/07/09 18:06:27;;;;;;;8.73;3.97;;;;;;;;;;6066932;23;20009;-80
2023/07/09 18:08:53;;;;;;;12.23;5.32;;;;;;;;;;6065030;23;20014;-80
2023/07/09 18:11:25;;;;;;;15.90;6.30;;;;;;;;;;6065535;23;19999;-79
2023/07/09 18:13:51;;;;;;;11.77;5.00;;;;;;;;;;6065024;23;20007;-79
2023/07/09 18:16:16;;;;;;;11.25;4.88;;;;;;;;;;6065169;23;20023;-81
2023/07/09 18:18:41;;;;;;;15.18;6.40;;;;;;;;;;6065012;23;19998;-80
2023/07/09 18:21:11;;;;;;;10.77;5.22;;;;;;;;;;6088824;23;20458;-80
2023/07/09 18:23:36;;;;;;;11.27;5.15;;;;;;;;;;6065952;23;20005;-79
2023/07/09 18:26:02;;;;;;;13.10;6.00;;;;;;;;;;6065036;23;20042;-80
2023/07/09 18:28:32;;;;;;;10.30;4.45;;;;;;;;;;6065016;23;20442;-80
2023/07/09 18:30:57;;;;;;;9.77;5.15;;;;;;;;;;6065162;23;20145;-79
2023/07/09 18:33:23;;;;;;;10.48;5.00;;;;;;;;;;6088608;23;20379;-80
2023/07/09 18:35:48;;;;;;;14.60;4.72;;;;;;;;;;6064341;23;20037;-80
2023/07/09 18:38:15;;;;;;;9.82;4.50;;;;;;;;;;6089598;23;20384;-80
2023/07/09 18:40:41;;;;;;;10.68;4.63;;;;;;;;;;6063801;23;20011;-79
2023/07/09 18:43:14;;;;;;;9.77;4.97;;;;;;;;;;6066772;23;20015;-80
2023/07/09 18:45:39;;;;;;;10.15;4.95;;;;;;;;;;6067969;23;20419;-79
2023/07/09 18:48:24;;;;;;;12.38;4.53;;;;;;;;;;6066717;23;20005;-79
2023/07/09 18:50:52;;;;;;;10.10;4.68;;;;;;;;;;6066902;23;20428;-79
2023/07/09 18:53:21;;;;;;;9.32;4.47;;;;;;;;;;6071650;23;19999;-84
2023/07/09 18:55:47;;;;;;;16.70;5.38;;;;;;;;;;6090032;23;20091;-84
2023/07/09 18:58:19;;;;;;;10.02;4.25;;;;;;;;;;6071294;23;20079;-91
2023/07/09 19:00:45;;;;;;;9.23;4.80;;;;;;;;;;6070968;23;20002;-92
2023/07/09 19:03:14;;;;;;;10.05;4.82;;;;;;;;;;6078177;23;20007;-83
2023/07/09 19:05:43;;;;;;;11.38;4.88;;;;;;;;;;6080763;23;20028;-93
2023/07/09 19:08:19;;;;;;;8.13;4.60;;;;;;;;;;6076825;23;20138;-83
2023/07/09 19:10:45;;;;;;;11.63;4.18;;;;;;;;;;6076744;23;20431;-83
2023/07/09 19:13:10;;;;;;;8.23;4.30;;;;;;;;;;6066940;23;20084;-83
2023/07/09 19:15:38;;;;;;;7.63;4.68;;;;;;;;;;6098809;23;20022;-83
2023/07/09 19:18:04;;;;;;;10.82;4.53;;;;;;;;;;6076538;23;20033;-93
2023/07/09 19:20:29;;;;;;;10.27;4.43;;;;;;;;;;6079395;23;20056;-82
2023/07/09 19:22:57;;;;;;;5.93;3.63;;;;;;;;;;6074964;23;19999;-80
2023/07/09 19:25:25;;;;;;;7.03;3.90;;;;;;;;;;6065725;23;20647;-80
2023/07/09 19:27:51;;;;;;;12.80;6.43;;;;;;;;;;6095756;23;20010;-92
2023/07/09 19:30:17;;;;;;;11.30;4.57;;;;;;;;;;6099325;23;20066;-93
2023/07/09 19:32:48;;;;;;;11.38;5.35;;;;;;;;;;6073625;23;20284;-93
2023/07/09 19:35:15;;;;;;;8.43;4.28;;;;;;;;;;6075173;23;20010;-93
2023/07/09 19:37:40;;;;;;;10.15;5.25;;;;;;;;;;6073254;23;20013;-93
2023/07/09 19:40:26;;;;;;;8.40;4.50;;;;;;;;;;6074288;23;20011;-93
2023/07/09 19:42:52;;;;;;;10.73;5.18;;;;;;;;;;6049599;23;20019;-93
2023/07/09 19:45:21;;;;;;;10.70;4.28;;;;;;;;;;6050696;23;20431;-91
2023/07/09 19:47:51;;;;;;;10.98;4.68;;;;;;;;;;6072579;23;20007;-93
2023/07/09 19:50:16;;;;;;;12.65;5.07;;;;;;;;;;6049581;23;20055;-92
2023/07/09 19:52:44;;;;;;;14.07;6.05;;;;;;;;;;6050742;23;19999;-92
2023/07/09 19:55:15;;;;;;;10.25;5.15;;;;;;;;;;6051029;23;20011;-93
2023/07/09 19:57:43;;;;;;;14.57;6.38;;;;;;;;;;6048570;23;20160;-93
2023/07/09 20:00:08;;;;;;;12.75;6.10;;;;;;;;;;6066520;23;20002;-83
2023/07/09 20:02:34;;;;;;;11.35;5.28;;;;;;;;;;6065706;23;20001;-83
2023/07/09 20:05:01;;;;;;;13.13;5.50;;;;;;;;;;6041087;23;20007;-84
2023/07/09 20:07:26;;;;;;;11.55;5.70;;;;;;;;;;6041931;23;20018;-83
2023/07/09 20:09:53;;;;;;;10.90;5.10;;;;;;;;;;6066140;23;20014;-84
2023/07/09 20:12:19;;;;;;;10.35;4.68;;;;;;;;;;6042097;23;20062;-83
2023/07/09 20:14:45;;;;;;;10.48;4.65;;;;;;;;;;6041553;23;20335;-82
2023/07/09 20:17:11;;;;;;;11.23;5.07;;;;;;;;;;6041457;23;20006;-83
2023/07/09 20:19:38;;;;;;;11.35;4.60;;;;;;;;;;6044036;23;20029;-84
2023/07/09 20:22:04;;;;;;;11.77;4.85;;;;;;;;;;6071586;23;20086;-82
2023/07/09 20:24:29;;;;;;;8.43;4.35;;;;;;;;;;6065158;23;20404;-83
2023/07/09 20:26:55;;;;;;;10.07;4.28;;;;;;;;;;6042461;23;20022;-83
2023/07/09 20:29:20;;;;;;;8.50;4.00;;;;;;;;;;6044327;23;20003;-84
2023/07/09 20:31:50;;;;;;;6.65;3.13;;;;;;;;;;6076591;23;20082;-83
2023/07/09 20:34:21;;;;;;;10.27;3.58;;;;;;;;;;6049727;23;20323;-83
2023/07/09 20:36:47;;;;;;;9.05;3.20;;;;;;;;;;6071937;23;20312;-84
2023/07/09 20:39:20;;;;;;;11.93;3.58;;;;;;;;;;6075282;23;20007;-83
2023/07/09 20:41:46;;;;;;;7.10;3.10;;;;;;;;;;6073545;23;20082;-83
2023/07/09 20:44:22;;;;;;;6.93;2.90;;;;;;;;;;6048562;23;19999;-83
2023/07/09 20:46:48;;;;;;;6.43;3.47;;;;;;;;;;6075630;23;20434;-83
2023/07/09 20:49:30;;;;;;;4.97;2.47;;;;;;;;;;6051166;23;20384;-80
2023/07/09 20:51:56;;;;;;;6.78;3.40;;;;;;;;;;6046809;23;20009;-80
2023/07/09 20:54:21;;;;;;;7.22;2.60;;;;;;;;;;6068099;23;20070;-80
2023/07/09 20:56:46;;;;;;;9.13;2.42;;;;;;;;;;6044534;23;20010;-80
2023/07/09 20:59:13;;;;;;;15.25;3.47;;;;;;;;;;6067004;23;19999;-80
2023/07/09 21:01:38;;;;;;;4.35;2.53;;;;;;;;;;6041326;23;20015;-80
2023/07/09 21:04:10;;;;;;;4.43;2.58;;;;;;;;;;6065906;23;20045;-80
2023/07/09 21:06:35;;;;;;;7.55;2.78;;;;;;;;;;6067416;23;19999;-80
2023/07/09 21:09:00;;;;;;;6.78;2.80;;;;;;;;;;6065241;23;20009;-80
2023/07/09 21:11:28;;;;;;;5.63;2.25;;;;;;;;;;6042011;23;20046;-80
2023/07/09 21:13:56;;;;;;;7.47;2.50;;;;;;;;;;6041347;23;20453;-80
2023/07/09 21:16:21;;;;;;;7.20;2.40;;;;;;;;;;6067198;23;19999;-80
2023/07/09 21:18:46;;;;;;;6.35;2.97;;;;;;;;;;6067247;23;20058;-80
2023/07/09 21:21:12;;;;;;;6.28;2.22;;;;;;;;;;6067160;23;20007;-80
2023/07/09 21:23:37;;;;;;;6.50;2.38;;;;;;;;;;6041291;23;19999;-80
2023/07/09 21:26:02;;;;;;;8.32;2.08;;;;;;;;;;6041028;23;20407;-80
2023/07/09 21:28:27;;;;;;;4.88;2.33;;;;;;;;;;6041218;23;20014;-80
2023/07/09 21:30:53;;;;;;;4.80;1.80;;;;;;;;;;6041604;23;20149;-80
2023/07/09 21:33:23;;;;;;;4.32;1.95;;;;;;;;;;6041394;23;20009;-80
2023/07/09 21:35:48;;;;;;;4.40;2.05;;;;;;;;;;6040707;23;20384;-80
2023/07/09 21:38:23;;;;;;;3.10;1.90;;;;;;;;;;6041168;23;20042;-80
2023/07/09 21:40:50;;;;;;;6.20;2.20;;;;;;;;;;6047196;23;20338;-81
2023/07/09 21:43:15;;;;;;;6.72;2.17;;;;;;;;;;6065826;23;20002;-80
2023/07/09 21:45:41;;;;;;;6.03;2.35;;;;;;;;;;6065135;23;20003;-79
2023/07/09 21:48:12;;;;;;;4.60;2.58;;;;;;;;;;6066839;23;20181;-80
2023/07/09 21:50:37;;;;;;;11.05;2.45;;;;;;;;;;6068324;23;20412;-80
2023/07/09 21:53:03;;;;;;;5.47;2.28;;;;;;;;;;6089804;23;20003;-80
2023/07/09 21:55:32;;;;;;;7.93;2.45;;;;;;;;;;6067564;23;20082;-81
2023/07/09 21:57:57;;;;;;;9.45;2.15;;;;;;;;;;6068508;23;19999;-80
2023/07/09 22:00:24;;;;;;;4.47;2.28;;;;;;;;;;6069463;23;20022;-80
2023/07/09 22:02:54;;;;;;;7.57;2.45;;;;;;;;;;6069129;23;20066;-80
2023/07/09 22:05:24;;;;;;;7.03;2.75;;;;;;;;;;6067851;23;20002;-80
2023/07/09 22:07:53;;;;;;;6.15;2.92;;;;;;;;;;6071627;23;20027;-81
2023/07/09 22:10:20;;;;;;;5.30;2.47;;;;;;;;;;6071215;23;19998;-80
2023/07/09 22:12:49;;;;;;;7.53;2.65;;;;;;;;;;6070176;23;20018;-80
2023/07/09 22:15:18;;;;;;;5.60;2.30;;;;;;;;;;6070516;23;20126;-80
2023/07/09 22:17:46;;;;;;;8.43;2.70;;;;;;;;;;6070192;23;20071;-80
2023/07/09 22:20:13;;;;;;;9.57;3.30;;;;;;;;;;6066245;23;20013;-81
2023/07/09 22:22:39;;;;;;;8.23;2.63;;;;;;;;;;6068544;23;20367;-80
2023/07/09 22:25:06;;;;;;;7.57;3.03;;;;;;;;;;6072930;23;20060;-83
2023/07/09 22:27:32;;;;;;;6.70;3.00;;;;;;;;;;6064524;23;20329;-83
2023/07/09 22:29:57;;;;;;;6.72;2.80;;;;;;;;;;6066315;23;20237;-83
2023/07/09 22:32:29;;;;;;;8.95;3.45;;;;;;;;;;6088587;23;20041;-83
2023/07/09 22:34:54;;;;;;;;;;;;;;;;;;6065628;23;20005;-83
2023/07/09 22:37:20;;;;;;;4.95;2.97;;;;;;;;;;6088141;23;19981;-83
2023/07/09 22:39:45;;;;;;;8.18;3.40;;;;;;;;;;6064934;23;20066;-83
2023/07/09 22:42:11;;;;;;;6.35;3.50;;;;;;;;;;6063706;23;20556;-83
2023/07/09 22:44:36;;;;;;;8.45;2.78;;;;;;;;;;6087827;23;20423;-83
2023/07/09 22:47:04;;;;;;;7.95;3.45;;;;;;;;;;6063872;23;20011;-83
2023/07/09 22:49:30;;;;;;;7.63;3.15;;;;;;;;;;6066446;23;20007;-82
2023/07/09 22:51:55;;;;;;;11.48;3.05;;;;;;;;;;6064705;23;20009;-83
2023/07/09 22:54:23;;;;;;;9.43;3.35;;;;;;;;;;6064250;23;19999;-83
2023/07/09 22:56:49;;;;;;;7.00;2.90;;;;;;;;;;6064254;23;20437;-83
2023/07/09 22:59:14;;;;;;;4.20;2.53;;;;;;;;;;6064164;23;20023;-83
2023/07/09 23:01:40;;;;;;;6.97;2.83;;;;;;;;;;6087952;23;20003;-83
2023/07/09 23:04:09;;;;;;;7.45;2.88;;;;;;;;;;6088573;23;20003;-83
2023/07/09 23:06:34;;;;;;;7.95;2.92;;;;;;;;;;6064844;23;20515;-83
2023/07/09 23:09:00;;;;;;;13.95;3.08;;;;;;;;;;6089089;23;20092;-83
2023/07/09 23:11:27;;;;;;;11.65;3.13;;;;;;;;;;6064586;23;20006;-83
2023/07/09 23:13:53;;;;;;;7.18;2.85;;;;;;;;;;6064632;23;20007;-83
2023/07/09 23:16:20;;;;;;;9.02;3.22;;;;;;;;;;6090947;23;20006;-83
2023/07/09 23:18:46;;;;;;;5.63;2.78;;;;;;;;;;6064894;23;20021;-83
2023/07/09 23:21:19;;;;;;;4.25;2.55;;;;;;;;;;6065174;23;20446;-83
2023/07/09 23:23:44;;;;;;;6.85;2.50;;;;;;;;;;6089680;23;20007;-83
2023/07/09 23:26:12;;;;;;;6.28;2.75;;;;;;;;;;6067667;23;20438;-83
2023/07/09 23:28:37;;;;;;;7.60;2.50;;;;;;;;;;6069013;23;20392;-82
2023/07/09 23:31:05;;;;;;;9.00;2.33;;;;;;;;;;6069715;23;19998;-83
2023/07/09 23:33:32;;;;;;;8.15;2.22;;;;;;;;;;6071563;23;20009;-82
2023/07/09 23:35:58;;;;;;;3.47;1.98;;;;;;;;;;6070675;23;20005;-83
2023/07/09 23:38:26;;;;;;;5.97;2.20;;;;;;;;;;6071157;23;20315;-82
2023/07/09 23:40:53;;;;;;;4.72;2.08;;;;;;;;;;6073504;23;20018;-83
2023/07/09 23:43:19;;;;;;;4.15;2.25;;;;;;;;;;6047326;23;20010;-82
2023/07/09 23:45:44;;;;;;;4.93;2.10;;;;;;;;;;6045204;23;20356;-83
2023/07/09 23:48:22;;;;;;;5.68;2.17;;;;;;;;;;6068298;23;20062;-83
2023/07/09 23:50:48;;;;;;;7.28;2.05;;;;;;;;;;6044585;23;20367;-83
2023/07/09 23:53:18;;;;;;;6.72;2.10;;;;;;;;;;6043980;23;20002;-83
2023/07/09 23:55:43;;;;;;;3.95;2.03;;;;;;;;;;6041487;23;20007;-83
2023/07/09 23:58:08;;;;;;;6.80;1.95;;;;;;;;;;6041512;23;20423;-82
